• Join FlightAware (Why Join?)
  • Login
  • US Flag 
Gobble Gobble! 
02:34PM EST


 

Airport Tracker/Info


-or-


 

Live Flight TrackerFlight Track Log ✈ FIN666 ✈ 26-Jan-2014 ✈ EKCH / CPH - EFHK / HEL

Flight Track Log - Related Links

Times and Time Zones

All times are in EST time to prevent confusion due to time zone crossing. See the FIN666 flight status page for this flight to view local times or setup timezone preferences in your user account.

Time Position Orientation Groundspeed Altitude Reporting Facility
EST Latitude Longitude Course Direction KTS MPH feet Rate Location/Type
07:37AM 55.8191 13.0714 49° Northeast  Level Estimated
07:38AM 55.8859 13.2108 49° Northeast  Level Estimated
07:39AM 55.9525 13.3507 50° Northeast  Level Estimated
07:40AM 56.0265 13.5072 50° Northeast  Level Estimated
07:41AM 56.1004 13.6643 50° Northeast  Level Estimated
07:42AM 56.1740 13.8220 50° Northeast  Level Estimated
07:43AM 56.2474 13.9802 50° Northeast  Level Estimated
07:44AM 56.3206 14.1391 50° Northeast  Level Estimated
07:45AM 56.3937 14.2986 50° Northeast  Level Estimated
07:46AM 56.4665 14.4587 50° Northeast  Level Estimated
07:47AM 56.5391 14.6195 51° Northeast  Level Estimated
07:48AM 56.6115 14.7808 51° Northeast  Level Estimated
07:49AM 56.6837 14.9428 51° Northeast  Level Estimated
07:50AM 56.7556 15.1053 51° Northeast  Level Estimated
07:51AM 56.8274 15.2685 51° Northeast  Level Estimated
07:52AM 56.8990 15.4324 51° Northeast  Level Estimated
07:53AM 56.9703 15.5968 51° Northeast  Level Estimated
07:54AM 57.0414 15.7619 52° Northeast  Level Estimated
07:55AM 57.1123 15.9276 52° Northeast  Level Estimated
07:56AM 57.1830 16.0940 52° Northeast  Level Estimated
07:57AM 57.2535 16.2610 52° Northeast  Level Estimated
07:58AM 57.3237 16.4286 52° Northeast  Level Estimated
07:59AM 57.3937 16.5969 52° Northeast  Level Estimated
08:00AM 57.4625 16.7634 52° Northeast  Level Estimated
08:01AM 57.5311 16.9306 53° Northeast  Level Estimated
08:02AM 57.5995 17.0984 53° Northeast  Level Estimated
08:03AM 57.6676 17.2668 53° Northeast  Level Estimated
08:04AM 57.7356 17.4358 53° Northeast  Level Estimated
08:05AM 57.8032 17.6055 53° Northeast  Level Estimated
08:06AM 57.8707 17.7758 53° Northeast  Level Estimated
08:07AM 57.9380 17.9468 53° Northeast  Level Estimated
08:08AM 58.0050 18.1184 54° Northeast  Level Estimated
08:09AM 58.0717 18.2906 54° Northeast  Level Estimated
08:10AM 58.1383 18.4635 54° Northeast  Level Estimated
08:11AM 58.2046 18.6371 54° Northeast  Level Estimated
08:12AM 58.2707 18.8112 54° Northeast  Level Estimated
08:13AM 58.3365 18.9861 54° Northeast  Level Estimated
08:14AM 58.4021 19.1615 54° Northeast  Level Estimated
08:15AM 58.4674 19.3377 55° Northeast  Level Estimated
08:16AM 58.5325 19.5145 55° Northeast  Level Estimated
08:17AM 58.5974 19.6919 55° Northeast  Level Estimated
08:18AM 58.6620 19.8700 55° Northeast  Level Estimated
08:19AM 58.7264 20.0488 55° Northeast  Level Estimated
08:20AM 58.7905 20.2282 55° Northeast  Level Estimated
08:21AM 58.8544 20.4083 56° Northeast  Level Estimated
08:22AM 58.9180 20.5891 56° Northeast  Level Estimated
08:23AM 58.9814 20.7705 56° Northeast  Level Estimated
08:24AM 59.0445 20.9526 56° Northeast  Level Estimated
08:25AM 59.1074 21.1353 56° Northeast  Level Estimated
08:26AM 59.1700 21.3188 56° Northeast  Level Estimated
08:27AM 59.2323 21.5029 56° Northeast  Level Estimated
08:28AM 59.2944 21.6876 57° Northeast  Level Estimated
08:29AM 59.3562 21.8731 57° Northeast  Level Estimated
08:30AM 59.4178 22.0592 57° Northeast  Level Estimated
08:31AM 59.4791 22.2460 57° Northeast  Level Estimated
08:32AM 59.5401 22.4335 57° Northeast  Level Estimated
08:33AM 59.6008 22.6216 57° Northeast  Level Estimated
08:34AM 59.6613 22.8104 58° Northeast  Level Estimated
08:35AM 59.7215 23.0000 58° Northeast  Level Estimated
08:36AM 59.7815 23.1901 58° Northeast  Level Estimated
08:37AM 59.8411 23.3810 58° Northeast  Level Estimated
08:38AM 59.9005 23.5726 58° Northeast  Level Estimated
08:39AM 59.9596 23.7648 58° Northeast  Level Estimated
08:40AM 60.0185 23.9578 59° Northeast  Level Estimated
08:41AM 60.0770 24.1514 59° Northeast  Level Estimated
08:42AM 60.1353 24.3457 59° Northeast  Level Estimated
08:43AM 60.1958 24.5493 59° Northeast  Level Estimated
08:44AM 60.2560 24.7537 59° Northeast  Level Estimated
08:45AM 60.3159 24.9588 59° Northeast  Level Estimated
08:46AM 60.3172 24.9633 59° Northeast  Level Estimated
08:47AM 60.3172 24.9633 37° Northeast  Level Estimated
08:48AM 60.3172 24.9633 37° Northeast  Level Estimated
08:49AM 60.3172 24.9633 37° Northeast  Level Estimated
08:50AM 60.3172 24.9633 37° Northeast  Level Estimated
08:51AM 60.3172 24.9633 37° Northeast  Level Estimated
08:52AM 60.3172 24.9633 37° Northeast  Level Estimated
08:53AM 60.3172 24.9633 37° Northeast  Level Estimated
08:54AM 60.3172 24.9633 37° Northeast  Level Estimated
08:55AM 60.3172 24.9633 37° Northeast  Level Estimated